Madawaska, Maine
Current Conditions -  °F | °C
As of 7:53 PM on Friday 24 Oct 2014 (Local Time) from KFVE Reporting Station
Light Rain Light Rain  
Wind Chill: 33°   Ceiling: 4700
Heat Index: 39°   Visibility: 10mi
Dew Point: 36°   Wind: 9mph
Humidity: 89%   Direction: 350°N
Pressure: 29.71"   Gusts: NA
Location:  47.36°N, 68.32°W
Report Text: KFVE 242353Z AUTO 35008KT 10SM -RA OVC047 04/02 A2971 RMK AO2 SLP065 P0001 60013 T00390022 10050 20039 53002
Loading
Personal Weather Stations






























Interactive Weather Map
Tropical Storm Tracking
New forecast layout! Learn more

10-Day Weather Forecast

Advertisements
Track Severe Weather on mobile